Argyle, Georgia
Current Conditions -  °F | °C
As of 1:15 PM on Thursday 30 Oct 2014 (Local Time) from KHOE Reporting Station
Overcast Overcast  
Wind Chill: 68°   Ceiling: 5000
Heat Index: 68°   Visibility: 10mi
Dew Point: 52°   Wind: 3mph
Humidity: 56%   Direction: 310°NW
Pressure: 29.99"   Gusts: NA
Location:  31.07°N, 82.65°W
Report Text: KHOE 301715Z AUTO 31003KT 10SM BKN050 BKN065 OVC085 20/11 A2999 RMK AO2
Loading
Personal Weather Stations






























Interactive Weather Map New forecast layout! Learn more

10-Day Weather Forecast

Advertisements
Track Severe Weather on mobile